• Join FlightAware (Why Join?)
  • Login
  • US Flag 
04:01PM EDT


 

Airport Tracker/Info


-or-


 

Live Flight TrackerFlight Track Log ✈ XOJ552 ✈ 22-Aug-2013 ✈ KGPI - KVNY

Flight Track Log - Related Links

Times and Time Zones

All times are in EDT time to prevent confusion due to time zone crossing. See the XOJ552 flight status page for this flight to view local times or setup timezone preferences in your user account.

Time Position Orientation Groundspeed Altitude Reporting Facility
EDT Latitude Longitude Course Direction KTS MPH feet Rate Location/Type
01:40PM 48.3275 -114.2428 225° Southwest 192 221 4,300  Level Seattle Center
01:41PM 48.3317 -114.3086 275° West 236 272 7,800 3,420 Climbing Seattle Center
01:42PM 48.2861 -114.3825 227° Southwest 238 274 11,300 3,360 Climbing Seattle Center
01:43PM 47.6966 -115.2402 233° Southwest  Level FlightAware Approximate
01:43PM 48.2317 -114.4667 226° Southwest 269 310 14,800  Level Seattle Center
01:44PM 47.6229 -115.3658 225° Southwest  Level FlightAware Approximate
01:44PM 48.1747 -114.5558 226° Southwest 294 338 18,600  Level Seattle Center
01:45PM 47.5438 -115.4843 225° Southwest  Level FlightAware Approximate
01:45PM 48.1175 -114.6458 226° Southwest 301 346 21,600  Level Seattle Center
01:46PM 48.0531 -114.7456 226° Southwest 329 379 24,300 2,820 Climbing Seattle Center
01:47PM 47.9722 -114.8692 226° Southwest 350 403 27,500 2,520 Climbing Salt Lake Center
01:48PM 47.9019 -114.9756 225° Southwest 361 415 29,700 2,220 Climbing Salt Lake Center
01:49PM 47.8283 -115.0878 226° Southwest 374 430 32,000 2,040 Climbing Seattle Center
01:50PM 47.7547 -115.2022 226° Southwest 381 438 33,800 960 Climbing Seattle Center
01:51PM 47.6736 -115.3250 226° Southwest 400 460 34,000 60 Climbing Seattle Center
01:52PM 47.5706 -115.4783 225° Southwest 435 501 34,000 60 Level Salt Lake Center
01:53PM 47.4842 -115.6058 225° Southwest 439 505 34,200 900 Climbing Salt Lake Center
01:54PM 47.4036 -115.6747 210° Southwest 428 493 35,800 2,160 Climbing Seattle Center
01:55PM 47.2925 -115.7283 198° South 422 486 38,400 2,460 Climbing Seattle Center
01:56PM 47.1892 -115.7783 198° South 394 453 40,900 1,740 Climbing Seattle Center
01:57PM 47.0719 -115.8356 198° South 374 430 42,000 780 Climbing Seattle Center
01:58PM 46.9728 -115.8858 199° South 376 433 42,500 480 Climbing Seattle Center
01:59PM 46.8692 -115.9361 198° South 387 445 43,000 240 Climbing Seattle Center
02:00PM 46.7628 -115.9886 199° South 399 459 43,000 180 Level Seattle Center
02:01PM 46.6536 -116.0419 199° South 411 473 43,400 420 Climbing Seattle Center
02:02PM 46.5439 -116.0947 198° South 413 475 43,900 480 Climbing Seattle Center
02:03PM 46.4350 -116.1464 198° South 412 474 44,400 480 Climbing Seattle Center
02:04PM 46.3272 -116.1986 199° South 410 472 44,900 240 Climbing Seattle Center
02:05PM 46.2181 -116.2506 198° South 412 474 45,000  Climbing Seattle Center
02:06PM 46.1064 -116.3025 198° South 419 482 45,000  Level Seattle Center
02:08PM 45.9703 -116.3675 198° South 428 493 45,000  Level Seattle Center
02:09PM 45.8578 -116.4203 198° South 427 491 45,000  Level Seattle Center
02:10PM 45.7464 -116.4733 198° South 424 488 45,000  Level Seattle Center
02:11PM 45.6344 -116.5267 198° South 423 487 45,000  Level Seattle Center
02:12PM 45.5239 -116.5772 198° South 420 483 45,000  Level Seattle Center
02:13PM 45.4147 -116.6286 198° South 415 478 45,000  Level Seattle Center
02:14PM 45.3056 -116.6792 198° South 413 475 45,000  Level Seattle Center
02:15PM 45.1944 -116.7278 197° South 417 480 45,000  Level Seattle Center
02:16PM 45.0831 -116.7800 198° South 420 483 45,000  Level Seattle Center
02:17PM 44.9714 -116.8314 198° South 422 486 45,000  Level Seattle Center
02:18PM 44.8367 -116.8917 198° South 425 489 45,000  Level Seattle Center
02:19PM 44.7236 -116.9428 198° South 425 489 45,000  Level Seattle Center
02:20PM 44.6125 -116.9936 198° South 423 487 45,000  Level Seattle Center
02:21PM 44.5067 -117.0408 198° South 421 484 45,000  Level Seattle Center
02:22PM 44.3950 -117.0903 198° South 420 483 45,000  Level Seattle Center
02:23PM 44.2850 -117.1406 198° South 418 481 45,000  Level Seattle Center
02:24PM 44.1528 -117.1983 197° South 416 479 45,000  Level Seattle Center
02:25PM 44.0411 -117.2475 198° South 417 480 45,000  Level Seattle Center
02:25PM 43.9753 -117.2761 197° South 425 489 45,000  Level Salt Lake Center
02:26PM 43.8667 -117.3228 197° South 423 487 45,000  Level Salt Lake Center
02:27PM 43.7494 -117.3744 198° South 425 489 45,000  Level Salt Lake Center
02:28PM 43.6356 -117.4228 197° South 413 475 45,000  Level Salt Lake Center
02:30PM 43.5183 -117.4694 196° South 419 482 45,000  Level Salt Lake Center
02:31PM 43.4011 -117.5119 195° South 419 482 45,000  Level Salt Lake Center
02:32PM 43.2911 -117.5519 195° South 420 483 45,000  Level Salt Lake Center
02:33PM 43.1642 -117.5972 195° South 420 483 45,000  Level Salt Lake Center
02:34PM 43.0458 -117.6406 195° South 424 488 45,000  Level Salt Lake Center
02:35PM 42.9275 -117.6839 195° South 425 489 45,000  Level Salt Lake Center
02:36PM 42.8150 -117.7231 194° South 432 497 45,000  Level Salt Lake Center
02:37PM 42.7044 -117.7633 195° South 434 499 45,000  Level Salt Lake Center
02:38PM 42.5739 -117.8100 195° South 434 499 45,000  Level Salt Lake Center
02:39PM 42.4614 -117.8503 195° South 436 502 45,000  Level Salt Lake Center
02:40PM 42.3306 -117.8969 195° South 438 504 45,000  Level Salt Lake Center
02:41PM 42.2192 -117.9364 195° South 433 498 45,000  Level Salt Lake Center
02:42PM 42.0867 -117.9822 194° South 440 506 45,000  Level Salt Lake Center
02:43PM 41.9725 -118.0228 195° South 442 509 45,000  Level Salt Lake Center
02:44PM 41.8406 -118.0689 195° South 439 505 45,000  Level Salt Lake Center
02:45PM 41.7275 -118.1075 194° South 438 504 45,000  Level Salt Lake Center
02:46PM 41.5967 -118.1525 194° South 435 501 45,000  Level Salt Lake Center
02:47PM 41.4853 -118.1900 194° South 432 497 45,000  Level Salt Lake Center
02:48PM 41.3561 -118.2339 194° South 430 495 45,000  Level Salt Lake Center
02:49PM 41.2453 -118.2719 194° South 430 495 45,000  Level Salt Lake Center
02:50PM 41.1161 -118.3169 195° South 430 495 45,000  Level Salt Lake Center
02:51PM 41.0064 -118.3528 194° South 427 491 45,000  Level Salt Lake Center
02:52PM 40.8967 -118.3900 194° South 426 490 45,000  Level Salt Lake Center
02:53PM 40.7686 -118.4325 194° South 425 489 45,000  Level Salt Lake Center
02:54PM 40.6594 -118.4692 194° South 424 488 45,000  Level Salt Lake Center
02:55PM 40.5325 -118.5119 194° South 423 487 45,000  Level Salt Lake Center
02:56PM 40.4244 -118.5486 194° South 421 484 45,000  Level Salt Lake Center
02:57PM 40.2969 -118.5861 193° South 421 484 45,000  Level Salt Lake Center
02:58PM 40.1797 -118.6153 191° South 424 488 45,000  Level Salt Lake Center
02:59PM 40.0633 -118.6439 191° South 426 490 45,000  Level Salt Lake Center
03:01PM 39.9461 -118.6733 191° South 427 491 45,000  Level Salt Lake Center
03:02PM 39.8297 -118.7025 191° South 427 491 45,000  Level Salt Lake Center
03:03PM 39.6897 -118.7361 190° South 426 490 45,000  Level Salt Lake Center
03:04PM 39.5764 -118.7656 191° South 421 484 45,000  Level Oakland Center
03:05PM 39.4489 -118.7969 191° South 430 495 45,000  Level Oakland Center
03:06PM 39.3319 -118.8264 191° South 431 496 45,000  Level Oakland Center
03:07PM 39.2122 -118.8553 191° South 436 502 45,000  Level Oakland Center
03:08PM 39.0897 -118.8844 190° South 430 495 45,000  Level Oakland Center
03:09PM 38.9708 -118.9139 191° South 434 499 45,000  Level Oakland Center
03:10PM 38.8525 -118.9428 191° South 434 499 45,000  Level Oakland Center
03:11PM 38.7128 -118.9772 191° South 428 493 45,000  Level Oakland Center
03:12PM 38.5964 -119.0053 191° South 426 490 45,000  Level Oakland Center
03:13PM 38.4806 -119.0328 191° South 425 489 45,000  Level Oakland Center
03:14PM 38.3650 -119.0600 190° South 422 486 45,000  Level Oakland Center
03:15PM 38.2486 -119.0883 191° South 423 487 45,000  Level Oakland Center
03:16PM 38.1203 -119.1197 191° South 423 487 45,000  Level Oakland Center
03:17PM 38.0033 -119.1458 190° South 426 490 45,000 -420 Level Oakland Center
03:18PM 37.8875 -119.1747 191° South 424 488 44,200 -960 Descending Oakland Center
03:19PM 37.7706 -119.2011 190° South 424 488 43,100 -1,020 Descending Oakland Center
03:20PM 37.6564 -119.2294 191° South 418 481 42,200 -960 Descending Oakland Center
03:21PM 37.5469 -119.2561 191° South 417 480 41,200 -1,020 Descending Oakland Center
03:22PM 37.4311 -119.2831 190° South 422 486 40,100 -900 Descending Oakland Center
03:24PM 37.2386 -119.3269 190° South 444 511 39,000 -480 Descending Los Angeles Center
03:25PM 37.1236 -119.3536 190° South 425 489 39,000  Level Los Angeles Center
03:26PM 36.9811 -119.3914 192° South 435 501 39,000  Level Los Angeles Center
03:27PM 36.8586 -119.4181 190° South 445 512 39,000  Level Los Angeles Center
03:28PM 36.7361 -119.4447 190° South 448 516 39,000 -300 Level Los Angeles Center
03:29PM 36.6133 -119.4733 191° South 448 516 38,400 -960 Descending Los Angeles Center
03:30PM 36.4944 -119.4994 190° South 438 504 37,100 -1,620 Descending Los Angeles Center
03:31PM 36.3519 -119.5311 190° South 434 499 35,100 -1,860 Descending Los Angeles Center
03:32PM 36.2311 -119.5583 190° South 438 504 33,300 -1,800 Descending Los Angeles Center
03:33PM 36.1103 -119.5867 191° South 441 507 31,500 -1,140 Descending Los Angeles Center
03:34PM 35.9894 -119.6128 190° South 441 507 31,000 -300 Descending Los Angeles Center
03:35PM 35.8658 -119.6194 183° South 441 507 31,000 -300 Level Los Angeles Center
03:36PM 35.7394 -119.6244 182° South 449 517 30,400 -780 Descending Los Angeles Center
03:37PM 35.6142 -119.6286 182° South 448 516 29,400 -720 Descending Los Angeles Center
03:38PM 35.4594 -119.6342 182° South 459 528 29,000 -360 Descending Los Angeles Center
03:39PM 35.3275 -119.6400 182° South 468 539 28,700 -720 Descending Los Angeles Center
03:40PM 35.2078 -119.5983 164° South 465 535 27,600 -1,500 Descending Los Angeles Center
03:41PM 35.1031 -119.5094 145° Southeast 458 527 25,600 -2,160 Descending Los Angeles Center
03:42PM 35.0047 -119.4264 145° Southeast 435 501 23,200 -2,280 Descending Los Angeles Center
03:43PM 34.9078 -119.3461 146° Southeast 423 487 20,900 -2,400 Descending Los Angeles Center
03:44PM 34.7947 -119.2500 145° Southeast 415 478 18,200 -2,340 Descending Los Angeles Center
03:46PM 34.7097 -119.1781 145° Southeast 379 436 16,100 -1,980 Descending Los Angeles Center
03:47PM 34.6297 -119.1122 146° Southeast 333 383 14,200 -1,620 Descending Los Angeles Center
03:48PM 34.5703 -119.0594 144° Southeast 310 357 12,800 -1,500 Descending Los Angeles Center
03:49PM 34.4889 -118.9936 146° Southeast 293 337 11,100 -1,380 Descending Los Angeles Center
03:50PM 34.4297 -118.9383 142° Southeast 271 312 10,000 -1,200 Descending Los Angeles Center
03:51PM 34.4292 -118.8372 90° East 306 352 8,700 -1,260 Descending Los Angeles Center
03:52PM 34.4344 -118.7350 86° East 306 352 7,400 -1,260 Descending Los Angeles Center
03:53PM 34.4250 -118.6414 97° East 285 328 6,100 -720 Descending Los Angeles Center
03:54PM 34.3825 -118.5547 121° Southeast 236 272 6,000 -600 Descending Los Angeles Center
03:55PM 34.3422 -118.5100 137° Southeast 213 245 4,900 -1,320 Descending Los Angeles Center
03:55PM 34.3167 -118.5000 162° South 170 196 3,900 -1,560 Descending Southern California TRACON
03:56PM 34.2667 -118.5000 180° South 136 157 2,500 -1,260 Descending Southern California TRACON
03:57PM 34.2333 -118.5000 180° South 127 146 1,400 -1,140 Descending Southern California TRACON
04:00PM 34.2098 -118.4900 180° South  Level Estimated
04:07PM 34.2098 -118.4900 180° South  Level Estimated